sensor_id;sensor_type;location;lat;lon;timestamp;P1;durP1;ratioP1;P2;durP2;ratioP2
70997;SDS011;58663;52.040;4.634;2022-08-21T00:00:24;9.75;;;3.47;;
70997;SDS011;58663;52.040;4.634;2022-08-21T00:02:55;6.30;;;3.13;;
70997;SDS011;58663;52.040;4.634;2022-08-21T00:05:23;7.07;;;3.33;;
70997;SDS011;58663;52.040;4.634;2022-08-21T00:07:49;5.05;;;3.28;;
70997;SDS011;58663;52.040;4.634;2022-08-21T00:10:15;8.52;;;3.38;;
70997;SDS011;58663;52.040;4.634;2022-08-21T00:12:42;10.20;;;3.83;;
70997;SDS011;58663;52.040;4.634;2022-08-21T00:15:08;9.85;;;3.47;;
70997;SDS011;58663;52.040;4.634;2022-08-21T00:17:34;7.90;;;3.20;;
70997;SDS011;58663;52.040;4.634;2022-08-21T00:20:01;10.57;;;3.90;;
70997;SDS011;58663;52.040;4.634;2022-08-21T00:22:28;7.75;;;3.50;;
70997;SDS011;58663;52.040;4.634;2022-08-21T00:24:53;10.10;;;3.95;;
70997;SDS011;58663;52.040;4.634;2022-08-21T00:27:19;6.45;;;3.60;;
70997;SDS011;58663;52.040;4.634;2022-08-21T00:29:44;7.70;;;3.58;;
70997;SDS011;58663;52.040;4.634;2022-08-21T00:32:09;7.90;;;3.90;;
70997;SDS011;58663;52.040;4.634;2022-08-21T00:34:35;6.38;;;3.47;;
70997;SDS011;58663;52.040;4.634;2022-08-21T00:37:00;10.85;;;3.95;;
70997;SDS011;58663;52.040;4.634;2022-08-21T00:39:26;8.43;;;3.00;;
70997;SDS011;58663;52.040;4.634;2022-08-21T00:41:51;6.88;;;3.40;;
70997;SDS011;58663;52.040;4.634;2022-08-21T00:44:17;7.20;;;2.83;;
70997;SDS011;58663;52.040;4.634;2022-08-21T00:46:42;8.48;;;3.17;;
70997;SDS011;58663;52.040;4.634;2022-08-21T00:49:10;8.48;;;3.03;;
70997;SDS011;58663;52.040;4.634;2022-08-21T00:51:42;5.78;;;2.40;;
70997;SDS011;58663;52.040;4.634;2022-08-21T00:54:15;8.18;;;2.60;;
70997;SDS011;58663;52.040;4.634;2022-08-21T00:56:42;5.15;;;2.40;;
70997;SDS011;58663;52.040;4.634;2022-08-21T00:59:07;7.22;;;3.05;;
70997;SDS011;58663;52.040;4.634;2022-08-21T01:01:33;7.05;;;2.40;;
70997;SDS011;58663;52.040;4.634;2022-08-21T01:03:59;7.35;;;2.80;;
70997;SDS011;58663;52.040;4.634;2022-08-21T01:06:25;8.60;;;2.72;;
70997;SDS011;58663;52.040;4.634;2022-08-21T01:08:50;5.78;;;2.53;;
70997;SDS011;58663;52.040;4.634;2022-08-21T01:11:16;7.10;;;2.63;;
70997;SDS011;58663;52.040;4.634;2022-08-21T01:13:42;8.30;;;2.63;;
70997;SDS011;58663;52.040;4.634;2022-08-21T01:16:11;4.57;;;2.20;;
70997;SDS011;58663;52.040;4.634;2022-08-21T01:18:37;5.72;;;2.30;;
70997;SDS011;58663;52.040;4.634;2022-08-21T01:21:04;10.07;;;3.15;;
70997;SDS011;58663;52.040;4.634;2022-08-21T01:23:36;7.65;;;2.90;;
70997;SDS011;58663;52.040;4.634;2022-08-21T01:26:03;7.72;;;2.50;;
70997;SDS011;58663;52.040;4.634;2022-08-21T01:28:30;6.57;;;3.10;;
70997;SDS011;58663;52.040;4.634;2022-08-21T01:31:00;7.47;;;3.13;;
70997;SDS011;58663;52.040;4.634;2022-08-21T01:33:26;7.68;;;2.83;;
70997;SDS011;58663;52.040;4.634;2022-08-21T01:35:52;8.80;;;3.35;;
70997;SDS011;58663;52.040;4.634;2022-08-21T01:38:18;7.35;;;3.17;;
70997;SDS011;58663;52.040;4.634;2022-08-21T01:40:43;8.43;;;2.95;;
70997;SDS011;58663;52.040;4.634;2022-08-21T01:43:09;6.82;;;3.30;;
70997;SDS011;58663;52.040;4.634;2022-08-21T01:45:35;5.85;;;3.17;;
70997;SDS011;58663;52.040;4.634;2022-08-21T01:48:00;6.88;;;2.97;;
70997;SDS011;58663;52.040;4.634;2022-08-21T01:50:27;6.45;;;3.50;;
70997;SDS011;58663;52.040;4.634;2022-08-21T01:52:53;12.00;;;3.70;;
70997;SDS011;58663;52.040;4.634;2022-08-21T01:55:19;11.35;;;4.03;;
70997;SDS011;58663;52.040;4.634;2022-08-21T01:57:45;9.65;;;3.88;;
70997;SDS011;58663;52.040;4.634;2022-08-21T02:00:12;6.60;;;3.35;;
70997;SDS011;58663;52.040;4.634;2022-08-21T02:02:39;6.63;;;2.90;;
70997;SDS011;58663;52.040;4.634;2022-08-21T02:05:07;7.38;;;3.38;;
70997;SDS011;58663;52.040;4.634;2022-08-21T02:07:37;5.28;;;3.10;;
70997;SDS011;58663;52.040;4.634;2022-08-21T02:10:05;6.85;;;2.78;;
70997;SDS011;58663;52.040;4.634;2022-08-21T02:12:31;10.70;;;3.65;;
70997;SDS011;58663;52.040;4.634;2022-08-21T02:14:57;8.57;;;3.40;;
70997;SDS011;58663;52.040;4.634;2022-08-21T02:17:22;9.05;;;3.80;;
70997;SDS011;58663;52.040;4.634;2022-08-21T02:19:49;8.85;;;3.67;;
70997;SDS011;58663;52.040;4.634;2022-08-21T02:22:15;12.38;;;3.40;;
70997;SDS011;58663;52.040;4.634;2022-08-21T02:24:40;6.03;;;2.83;;
70997;SDS011;58663;52.040;4.634;2022-08-21T02:27:06;6.45;;;3.25;;
70997;SDS011;58663;52.040;4.634;2022-08-21T02:29:31;8.00;;;3.92;;
70997;SDS011;58663;52.040;4.634;2022-08-21T02:31:57;6.95;;;3.30;;
70997;SDS011;58663;52.040;4.634;2022-08-21T02:34:22;7.32;;;3.38;;
70997;SDS011;58663;52.040;4.634;2022-08-21T02:36:48;6.40;;;2.97;;
70997;SDS011;58663;52.040;4.634;2022-08-21T02:39:13;8.45;;;3.60;;
70997;SDS011;58663;52.040;4.634;2022-08-21T02:41:39;7.03;;;3.03;;
70997;SDS011;58663;52.040;4.634;2022-08-21T02:44:04;8.80;;;4.20;;
70997;SDS011;58663;52.040;4.634;2022-08-21T02:46:30;11.88;;;3.35;;
70997;SDS011;58663;52.040;4.634;2022-08-21T02:48:55;8.52;;;3.28;;
70997;SDS011;58663;52.040;4.634;2022-08-21T02:51:21;5.97;;;3.15;;
70997;SDS011;58663;52.040;4.634;2022-08-21T02:53:48;11.25;;;3.58;;
70997;SDS011;58663;52.040;4.634;2022-08-21T02:56:15;4.13;;;3.28;;
70997;SDS011;58663;52.040;4.634;2022-08-21T02:58:45;8.60;;;3.28;;
70997;SDS011;58663;52.040;4.634;2022-08-21T03:01:12;11.00;;;3.40;;
70997;SDS011;58663;52.040;4.634;2022-08-21T03:03:40;8.55;;;4.45;;
70997;SDS011;58663;52.040;4.634;2022-08-21T03:06:07;7.85;;;3.72;;
70997;SDS011;58663;52.040;4.634;2022-08-21T03:08:34;11.27;;;3.53;;
70997;SDS011;58663;52.040;4.634;2022-08-21T03:11:00;7.70;;;4.40;;
70997;SDS011;58663;52.040;4.634;2022-08-21T03:13:26;11.65;;;3.60;;
70997;SDS011;58663;52.040;4.634;2022-08-21T03:15:52;8.20;;;3.33;;
70997;SDS011;58663;52.040;4.634;2022-08-21T03:18:18;12.40;;;3.47;;
70997;SDS011;58663;52.040;4.634;2022-08-21T03:20:44;10.68;;;3.47;;
70997;SDS011;58663;52.040;4.634;2022-08-21T03:23:12;6.70;;;3.42;;
70997;SDS011;58663;52.040;4.634;2022-08-21T03:25:39;7.95;;;3.97;;
70997;SDS011;58663;52.040;4.634;2022-08-21T03:28:07;7.78;;;3.22;;
70997;SDS011;58663;52.040;4.634;2022-08-21T03:30:36;7.35;;;3.03;;
70997;SDS011;58663;52.040;4.634;2022-08-21T03:33:02;6.50;;;2.88;;
70997;SDS011;58663;52.040;4.634;2022-08-21T03:35:27;6.78;;;3.22;;
70997;SDS011;58663;52.040;4.634;2022-08-21T03:37:53;10.38;;;3.38;;
70997;SDS011;58663;52.040;4.634;2022-08-21T03:40:20;11.50;;;3.88;;
70997;SDS011;58663;52.040;4.634;2022-08-21T03:42:47;5.60;;;2.95;;
70997;SDS011;58663;52.040;4.634;2022-08-21T03:45:13;12.48;;;3.55;;
70997;SDS011;58663;52.040;4.634;2022-08-21T03:47:53;7.88;;;3.40;;
70997;SDS011;58663;52.040;4.634;2022-08-21T03:50:23;16.50;;;3.63;;
70997;SDS011;58663;52.040;4.634;2022-08-21T03:52:50;7.50;;;3.00;;
70997;SDS011;58663;52.040;4.634;2022-08-21T03:55:15;9.98;;;2.85;;
70997;SDS011;58663;52.040;4.634;2022-08-21T03:57:41;9.68;;;3.50;;
70997;SDS011;58663;52.040;4.634;2022-08-21T04:00:07;6.57;;;3.33;;
70997;SDS011;58663;52.040;4.634;2022-08-21T04:02:36;6.57;;;3.15;;
70997;SDS011;58663;52.040;4.634;2022-08-21T04:05:02;10.02;;;2.67;;
70997;SDS011;58663;52.040;4.634;2022-08-21T04:07:28;5.45;;;2.63;;
70997;SDS011;58663;52.040;4.634;2022-08-21T04:09:53;10.13;;;2.60;;
70997;SDS011;58663;52.040;4.634;2022-08-21T04:12:19;7.07;;;2.90;;
70997;SDS011;58663;52.040;4.634;2022-08-21T04:14:45;7.20;;;2.63;;
70997;SDS011;58663;52.040;4.634;2022-08-21T04:17:11;6.13;;;3.22;;
70997;SDS011;58663;52.040;4.634;2022-08-21T04:19:36;6.40;;;2.80;;
70997;SDS011;58663;52.040;4.634;2022-08-21T04:22:02;12.90;;;4.03;;
70997;SDS011;58663;52.040;4.634;2022-08-21T04:24:27;8.77;;;3.78;;
70997;SDS011;58663;52.040;4.634;2022-08-21T04:26:52;11.63;;;3.78;;
70997;SDS011;58663;52.040;4.634;2022-08-21T04:29:18;7.85;;;2.72;;
70997;SDS011;58663;52.040;4.634;2022-08-21T04:31:44;7.65;;;2.80;;
70997;SDS011;58663;52.040;4.634;2022-08-21T04:34:10;6.32;;;2.80;;
70997;SDS011;58663;52.040;4.634;2022-08-21T04:36:35;9.07;;;3.15;;
70997;SDS011;58663;52.040;4.634;2022-08-21T04:39:01;8.40;;;2.53;;
70997;SDS011;58663;52.040;4.634;2022-08-21T04:41:26;6.90;;;2.67;;
70997;SDS011;58663;52.040;4.634;2022-08-21T04:43:52;8.32;;;3.00;;
70997;SDS011;58663;52.040;4.634;2022-08-21T04:46:20;8.85;;;2.60;;
70997;SDS011;58663;52.040;4.634;2022-08-21T04:48:45;6.00;;;3.15;;
70997;SDS011;58663;52.040;4.634;2022-08-21T04:51:12;6.65;;;2.63;;
70997;SDS011;58663;52.040;4.634;2022-08-21T04:53:41;12.50;;;3.22;;
70997;SDS011;58663;52.040;4.634;2022-08-21T04:56:20;5.85;;;2.42;;
70997;SDS011;58663;52.040;4.634;2022-08-21T04:58:48;8.48;;;2.28;;
70997;SDS011;58663;52.040;4.634;2022-08-21T05:01:16;5.65;;;3.13;;
70997;SDS011;58663;52.040;4.634;2022-08-21T05:03:43;7.97;;;3.60;;
70997;SDS011;58663;52.040;4.634;2022-08-21T05:06:11;8.95;;;2.65;;
70997;SDS011;58663;52.040;4.634;2022-08-21T05:08:38;6.20;;;2.97;;
70997;SDS011;58663;52.040;4.634;2022-08-21T05:11:05;12.15;;;3.35;;
70997;SDS011;58663;52.040;4.634;2022-08-21T05:13:30;8.80;;;2.70;;
70997;SDS011;58663;52.040;4.634;2022-08-21T05:15:56;13.23;;;3.78;;
70997;SDS011;58663;52.040;4.634;2022-08-21T05:18:22;8.13;;;3.58;;
70997;SDS011;58663;52.040;4.634;2022-08-21T05:20:48;9.75;;;3.28;;
70997;SDS011;58663;52.040;4.634;2022-08-21T05:23:14;9.85;;;3.25;;
70997;SDS011;58663;52.040;4.634;2022-08-21T05:25:40;9.15;;;3.30;;
70997;SDS011;58663;52.040;4.634;2022-08-21T05:28:06;15.95;;;4.00;;
70997;SDS011;58663;52.040;4.634;2022-08-21T05:30:32;9.73;;;3.75;;
70997;SDS011;58663;52.040;4.634;2022-08-21T05:32:59;9.85;;;3.03;;
70997;SDS011;58663;52.040;4.634;2022-08-21T05:35:26;12.52;;;3.35;;
70997;SDS011;58663;52.040;4.634;2022-08-21T05:37:53;13.35;;;4.80;;
70997;SDS011;58663;52.040;4.634;2022-08-21T05:40:19;10.20;;;3.25;;
70997;SDS011;58663;52.040;4.634;2022-08-21T05:42:45;15.57;;;5.22;;
70997;SDS011;58663;52.040;4.634;2022-08-21T05:45:11;10.85;;;4.20;;
70997;SDS011;58663;52.040;4.634;2022-08-21T05:47:36;18.60;;;4.68;;
70997;SDS011;58663;52.040;4.634;2022-08-21T05:50:02;15.85;;;4.50;;
70997;SDS011;58663;52.040;4.634;2022-08-21T05:52:29;12.82;;;3.97;;
70997;SDS011;58663;52.040;4.634;2022-08-21T05:54:54;8.18;;;4.28;;
70997;SDS011;58663;52.040;4.634;2022-08-21T05:57:20;18.85;;;4.60;;
70997;SDS011;58663;52.040;4.634;2022-08-21T05:59:47;10.77;;;3.55;;
70997;SDS011;58663;52.040;4.634;2022-08-21T06:02:12;15.75;;;4.28;;
70997;SDS011;58663;52.040;4.634;2022-08-21T06:04:39;8.35;;;3.90;;
70997;SDS011;58663;52.040;4.634;2022-08-21T06:07:04;13.40;;;4.53;;
70997;SDS011;58663;52.040;4.634;2022-08-21T06:09:30;12.63;;;4.57;;
70997;SDS011;58663;52.040;4.634;2022-08-21T06:11:56;13.68;;;5.07;;
70997;SDS011;58663;52.040;4.634;2022-08-21T06:14:21;15.30;;;5.20;;
70997;SDS011;58663;52.040;4.634;2022-08-21T06:16:47;13.23;;;3.80;;
70997;SDS011;58663;52.040;4.634;2022-08-21T06:19:12;12.25;;;4.18;;
70997;SDS011;58663;52.040;4.634;2022-08-21T06:21:38;13.65;;;4.30;;
70997;SDS011;58663;52.040;4.634;2022-08-21T06:24:04;17.38;;;4.63;;
70997;SDS011;58663;52.040;4.634;2022-08-21T06:26:29;13.95;;;4.95;;
70997;SDS011;58663;52.040;4.634;2022-08-21T06:28:55;11.32;;;4.38;;
70997;SDS011;58663;52.040;4.634;2022-08-21T06:31:22;11.70;;;3.78;;
70997;SDS011;58663;52.040;4.634;2022-08-21T06:33:49;12.88;;;4.00;;
70997;SDS011;58663;52.040;4.634;2022-08-21T06:36:15;13.02;;;3.92;;
70997;SDS011;58663;52.040;4.634;2022-08-21T06:38:41;14.02;;;3.95;;
70997;SDS011;58663;52.040;4.634;2022-08-21T06:41:06;11.68;;;3.80;;
70997;SDS011;58663;52.040;4.634;2022-08-21T06:43:32;18.23;;;4.18;;
70997;SDS011;58663;52.040;4.634;2022-08-21T06:45:58;10.95;;;3.72;;
70997;SDS011;58663;52.040;4.634;2022-08-21T06:48:23;12.65;;;3.85;;
70997;SDS011;58663;52.040;4.634;2022-08-21T06:50:49;7.22;;;3.38;;
70997;SDS011;58663;52.040;4.634;2022-08-21T06:53:16;11.30;;;3.80;;
70997;SDS011;58663;52.040;4.634;2022-08-21T06:55:43;10.10;;;3.42;;
70997;SDS011;58663;52.040;4.634;2022-08-21T06:58:08;9.48;;;3.85;;
70997;SDS011;58663;52.040;4.634;2022-08-21T07:00:36;11.63;;;3.25;;
70997;SDS011;58663;52.040;4.634;2022-08-21T07:03:03;15.73;;;4.20;;
70997;SDS011;58663;52.040;4.634;2022-08-21T07:05:30;8.25;;;3.25;;
70997;SDS011;58663;52.040;4.634;2022-08-21T07:07:56;10.65;;;3.33;;
70997;SDS011;58663;52.040;4.634;2022-08-21T07:10:23;8.60;;;3.28;;
70997;SDS011;58663;52.040;4.634;2022-08-21T07:12:52;13.23;;;3.20;;
70997;SDS011;58663;52.040;4.634;2022-08-21T07:15:18;13.25;;;3.33;;
70997;SDS011;58663;52.040;4.634;2022-08-21T07:17:44;11.88;;;2.97;;
70997;SDS011;58663;52.040;4.634;2022-08-21T07:20:09;9.45;;;3.13;;
70997;SDS011;58663;52.040;4.634;2022-08-21T07:22:35;13.80;;;3.30;;
70997;SDS011;58663;52.040;4.634;2022-08-21T07:25:03;9.07;;;2.85;;
70997;SDS011;58663;52.040;4.634;2022-08-21T07:27:30;11.93;;;3.17;;
70997;SDS011;58663;52.040;4.634;2022-08-21T07:29:56;7.45;;;2.67;;
70997;SDS011;58663;52.040;4.634;2022-08-21T07:32:22;5.78;;;2.40;;
70997;SDS011;58663;52.040;4.634;2022-08-21T07:34:47;11.68;;;2.92;;
70997;SDS011;58663;52.040;4.634;2022-08-21T07:37:13;7.55;;;2.83;;
70997;SDS011;58663;52.040;4.634;2022-08-21T07:39:38;12.20;;;3.65;;
70997;SDS011;58663;52.040;4.634;2022-08-21T07:42:03;13.63;;;3.28;;
70997;SDS011;58663;52.040;4.634;2022-08-21T07:44:29;7.80;;;2.78;;
70997;SDS011;58663;52.040;4.634;2022-08-21T07:46:55;7.82;;;2.60;;
70997;SDS011;58663;52.040;4.634;2022-08-21T07:49:20;8.77;;;2.83;;
70997;SDS011;58663;52.040;4.634;2022-08-21T07:51:46;11.70;;;2.83;;
70997;SDS011;58663;52.040;4.634;2022-08-21T07:54:11;12.20;;;2.95;;
70997;SDS011;58663;52.040;4.634;2022-08-21T07:56:36;11.93;;;2.80;;
70997;SDS011;58663;52.040;4.634;2022-08-21T07:59:02;6.28;;;2.55;;
70997;SDS011;58663;52.040;4.634;2022-08-21T08:01:28;11.30;;;3.22;;
70997;SDS011;58663;52.040;4.634;2022-08-21T08:03:54;7.43;;;3.08;;
70997;SDS011;58663;52.040;4.634;2022-08-21T08:06:20;7.03;;;2.88;;
70997;SDS011;58663;52.040;4.634;2022-08-21T08:08:45;10.95;;;3.08;;
70997;SDS011;58663;52.040;4.634;2022-08-21T08:11:11;7.53;;;2.80;;
70997;SDS011;58663;52.040;4.634;2022-08-21T08:13:43;7.30;;;2.65;;
70997;SDS011;58663;52.040;4.634;2022-08-21T08:16:11;7.70;;;2.75;;
70997;SDS011;58663;52.040;4.634;2022-08-21T08:18:36;10.48;;;2.65;;
70997;SDS011;58663;52.040;4.634;2022-08-21T08:21:02;7.45;;;3.35;;
70997;SDS011;58663;52.040;4.634;2022-08-21T08:23:28;11.85;;;2.83;;
70997;SDS011;58663;52.040;4.634;2022-08-21T08:25:55;8.32;;;3.13;;
70997;SDS011;58663;52.040;4.634;2022-08-21T08:28:21;10.35;;;2.90;;
70997;SDS011;58663;52.040;4.634;2022-08-21T08:30:47;6.78;;;2.20;;
70997;SDS011;58663;52.040;4.634;2022-08-21T08:33:13;9.52;;;2.47;;
70997;SDS011;58663;52.040;4.634;2022-08-21T08:35:39;8.60;;;2.65;;
70997;SDS011;58663;52.040;4.634;2022-08-21T08:38:05;10.18;;;2.75;;
70997;SDS011;58663;52.040;4.634;2022-08-21T08:40:39;7.82;;;2.45;;
70997;SDS011;58663;52.040;4.634;2022-08-21T08:43:10;6.78;;;2.85;;
70997;SDS011;58663;52.040;4.634;2022-08-21T08:45:41;8.13;;;3.15;;
70997;SDS011;58663;52.040;4.634;2022-08-21T08:48:10;8.38;;;2.85;;
70997;SDS011;58663;52.040;4.634;2022-08-21T08:50:55;7.90;;;3.33;;
70997;SDS011;58663;52.040;4.634;2022-08-21T08:53:23;10.48;;;3.00;;
70997;SDS011;58663;52.040;4.634;2022-08-21T08:55:53;7.32;;;3.13;;
70997;SDS011;58663;52.040;4.634;2022-08-21T08:58:23;7.90;;;2.90;;
70997;SDS011;58663;52.040;4.634;2022-08-21T09:00:55;13.15;;;2.88;;
70997;SDS011;58663;52.040;4.634;2022-08-21T09:03:22;6.80;;;3.05;;
70997;SDS011;58663;52.040;4.634;2022-08-21T09:28:24;6.82;;;2.00;;
70997;SDS011;58663;52.040;4.634;2022-08-21T09:30:53;9.68;;;2.15;;
70997;SDS011;58663;52.040;4.634;2022-08-21T09:33:20;6.03;;;2.00;;
70997;SDS011;58663;52.040;4.634;2022-08-21T09:35:53;6.15;;;1.80;;
70997;SDS011;58663;52.040;4.634;2022-08-21T09:38:24;5.45;;;1.98;;
70997;SDS011;58663;52.040;4.634;2022-08-21T09:41:01;3.40;;;1.60;;
70997;SDS011;58663;52.040;4.634;2022-08-21T09:43:29;6.72;;;1.83;;
70997;SDS011;58663;52.040;4.634;2022-08-21T09:46:06;10.50;;;1.70;;
70997;SDS011;58663;52.040;4.634;2022-08-21T09:48:43;4.78;;;1.42;;
70997;SDS011;58663;52.040;4.634;2022-08-21T09:51:12;5.43;;;1.42;;
70997;SDS011;58663;52.040;4.634;2022-08-21T09:53:49;3.97;;;1.40;;
70997;SDS011;58663;52.040;4.634;2022-08-21T09:56:27;7.93;;;1.95;;
70997;SDS011;58663;52.040;4.634;2022-08-21T09:59:17;7.60;;;1.65;;
70997;SDS011;58663;52.040;4.634;2022-08-21T10:01:56;3.83;;;1.52;;
70997;SDS011;58663;52.040;4.634;2022-08-21T10:04:29;6.72;;;1.83;;
70997;SDS011;58663;52.040;4.634;2022-08-21T10:07:06;6.50;;;1.70;;
70997;SDS011;58663;52.040;4.634;2022-08-21T10:09:36;6.03;;;1.90;;
70997;SDS011;58663;52.040;4.634;2022-08-21T10:29:26;6.95;;;1.50;;
70997;SDS011;58663;52.040;4.634;2022-08-21T10:39:56;6.97;;;1.50;;
70997;SDS011;58663;52.040;4.634;2022-08-21T10:48:05;10.13;;;2.55;;
70997;SDS011;58663;52.040;4.634;2022-08-21T10:55:59;5.57;;;1.40;;
70997;SDS011;58663;52.040;4.634;2022-08-21T10:58:29;5.13;;;1.65;;
70997;SDS011;58663;52.040;4.634;2022-08-21T11:00:58;7.45;;;1.90;;
70997;SDS011;58663;52.040;4.634;2022-08-21T11:03:44;4.35;;;1.50;;
70997;SDS011;58663;52.040;4.634;2022-08-21T11:06:18;6.28;;;1.42;;
70997;SDS011;58663;52.040;4.634;2022-08-21T11:08:48;8.98;;;1.65;;
70997;SDS011;58663;52.040;4.634;2022-08-21T11:11:26;8.68;;;1.33;;
70997;SDS011;58663;52.040;4.634;2022-08-21T11:13:57;9.75;;;1.73;;
70997;SDS011;58663;52.040;4.634;2022-08-21T11:25:06;7.00;;;2.17;;
70997;SDS011;58663;52.040;4.634;2022-08-21T11:27:53;4.63;;;1.50;;
70997;SDS011;58663;52.040;4.634;2022-08-21T11:30:24;6.78;;;1.50;;
70997;SDS011;58663;52.040;4.634;2022-08-21T11:33:24;5.68;;;1.42;;
70997;SDS011;58663;52.040;4.634;2022-08-21T11:36:00;4.93;;;1.13;;
70997;SDS011;58663;52.040;4.634;2022-08-21T11:38:35;4.57;;;1.30;;
70997;SDS011;58663;52.040;4.634;2022-08-21T11:43:44;6.93;;;1.33;;
70997;SDS011;58663;52.040;4.634;2022-08-21T11:49:06;7.90;;;1.95;;
70997;SDS011;58663;52.040;4.634;2022-08-21T11:51:48;6.60;;;1.27;;
70997;SDS011;58663;52.040;4.634;2022-08-21T11:57:23;3.58;;;1.20;;
70997;SDS011;58663;52.040;4.634;2022-08-21T12:00:00;5.63;;;2.05;;
70997;SDS011;58663;52.040;4.634;2022-08-21T12:02:29;4.57;;;1.30;;
70997;SDS011;58663;52.040;4.634;2022-08-21T12:05:00;3.88;;;1.98;;
70997;SDS011;58663;52.040;4.634;2022-08-21T12:07:40;5.18;;;1.80;;
70997;SDS011;58663;52.040;4.634;2022-08-21T12:10:11;2.10;;;1.10;;
70997;SDS011;58663;52.040;4.634;2022-08-21T12:12:43;3.17;;;1.10;;
70997;SDS011;58663;52.040;4.634;2022-08-21T12:18:07;2.95;;;1.15;;
70997;SDS011;58663;52.040;4.634;2022-08-21T12:23:45;4.32;;;1.23;;
70997;SDS011;58663;52.040;4.634;2022-08-21T12:26:27;3.97;;;1.50;;
70997;SDS011;58663;52.040;4.634;2022-08-21T12:29:14;3.83;;;1.08;;
70997;SDS011;58663;52.040;4.634;2022-08-21T12:34:53;5.80;;;2.13;;
70997;SDS011;58663;52.040;4.634;2022-08-21T12:40:26;3.55;;;1.50;;
70997;SDS011;58663;52.040;4.634;2022-08-21T12:42:56;2.35;;;1.25;;
70997;SDS011;58663;52.040;4.634;2022-08-21T12:45:34;4.07;;;1.20;;
70997;SDS011;58663;52.040;4.634;2022-08-21T12:48:10;2.88;;;1.25;;
70997;SDS011;58663;52.040;4.634;2022-08-21T12:55:53;5.70;;;1.30;;
70997;SDS011;58663;52.040;4.634;2022-08-21T12:58:25;4.93;;;1.10;;
70997;SDS011;58663;52.040;4.634;2022-08-21T13:00:53;2.47;;;1.00;;
70997;SDS011;58663;52.040;4.634;2022-08-21T13:03:21;2.95;;;1.30;;
70997;SDS011;58663;52.040;4.634;2022-08-21T13:05:47;4.68;;;1.30;;
70997;SDS011;58663;52.040;4.634;2022-08-21T13:08:13;3.75;;;1.40;;
70997;SDS011;58663;52.040;4.634;2022-08-21T13:10:39;4.53;;;1.25;;
70997;SDS011;58663;52.040;4.634;2022-08-21T13:13:17;4.78;;;1.35;;
70997;SDS011;58663;52.040;4.634;2022-08-21T13:15:47;7.38;;;1.92;;
70997;SDS011;58663;52.040;4.634;2022-08-21T13:18:19;5.88;;;1.10;;
70997;SDS011;58663;52.040;4.634;2022-08-21T13:20:47;3.85;;;1.40;;
70997;SDS011;58663;52.040;4.634;2022-08-21T13:25:50;3.75;;;1.50;;
70997;SDS011;58663;52.040;4.634;2022-08-21T13:28:16;4.05;;;1.95;;
70997;SDS011;58663;52.040;4.634;2022-08-21T13:30:43;3.80;;;1.20;;
70997;SDS011;58663;52.040;4.634;2022-08-21T13:33:10;4.15;;;1.00;;
70997;SDS011;58663;52.040;4.634;2022-08-21T13:38:23;4.43;;;1.20;;
70997;SDS011;58663;52.040;4.634;2022-08-21T13:40:53;6.00;;;1.33;;
70997;SDS011;58663;52.040;4.634;2022-08-21T13:43:31;2.28;;;1.17;;
70997;SDS011;58663;52.040;4.634;2022-08-21T13:45:58;3.50;;;1.65;;
70997;SDS011;58663;52.040;4.634;2022-08-21T13:48:26;4.97;;;1.52;;
70997;SDS011;58663;52.040;4.634;2022-08-21T13:50:54;6.70;;;1.30;;
70997;SDS011;58663;52.040;4.634;2022-08-21T13:53:31;4.95;;;1.33;;
70997;SDS011;58663;52.040;4.634;2022-08-21T13:55:59;4.90;;;1.43;;
70997;SDS011;58663;52.040;4.634;2022-08-21T13:58:29;3.05;;;1.08;;
70997;SDS011;58663;52.040;4.634;2022-08-21T14:01:15;3.33;;;1.15;;
70997;SDS011;58663;52.040;4.634;2022-08-21T14:03:50;4.68;;;1.17;;
70997;SDS011;58663;52.040;4.634;2022-08-21T14:06:18;4.32;;;1.08;;
70997;SDS011;58663;52.040;4.634;2022-08-21T14:08:50;4.63;;;1.10;;
70997;SDS011;58663;52.040;4.634;2022-08-21T14:11:19;3.58;;;1.20;;
70997;SDS011;58663;52.040;4.634;2022-08-21T14:13:47;4.40;;;1.10;;
70997;SDS011;58663;52.040;4.634;2022-08-21T14:16:19;3.03;;;1.07;;
70997;SDS011;58663;52.040;4.634;2022-08-21T14:21:24;4.05;;;1.10;;
70997;SDS011;58663;52.040;4.634;2022-08-21T14:24:04;5.32;;;1.15;;
70997;SDS011;58663;52.040;4.634;2022-08-21T14:26:32;6.07;;;1.25;;
70997;SDS011;58663;52.040;4.634;2022-08-21T14:28:59;4.40;;;1.20;;
70997;SDS011;58663;52.040;4.634;2022-08-21T14:31:28;4.38;;;1.20;;
70997;SDS011;58663;52.040;4.634;2022-08-21T14:33:57;4.95;;;1.38;;
70997;SDS011;58663;52.040;4.634;2022-08-21T14:36:23;7.72;;;1.95;;
70997;SDS011;58663;52.040;4.634;2022-08-21T14:38:49;6.85;;;1.02;;
70997;SDS011;58663;52.040;4.634;2022-08-21T14:41:21;2.40;;;1.30;;
70997;SDS011;58663;52.040;4.634;2022-08-21T14:43:48;4.78;;;1.40;;
70997;SDS011;58663;52.040;4.634;2022-08-21T14:46:18;2.45;;;1.00;;
70997;SDS011;58663;52.040;4.634;2022-08-21T14:48:46;4.50;;;1.58;;
70997;SDS011;58663;52.040;4.634;2022-08-21T14:51:12;4.22;;;1.20;;
70997;SDS011;58663;52.040;4.634;2022-08-21T14:53:38;4.25;;;1.42;;
70997;SDS011;58663;52.040;4.634;2022-08-21T14:56:04;4.57;;;1.30;;
70997;SDS011;58663;52.040;4.634;2022-08-21T14:58:30;6.07;;;1.17;;
70997;SDS011;58663;52.040;4.634;2022-08-21T15:00:56;6.15;;;1.50;;
70997;SDS011;58663;52.040;4.634;2022-08-21T15:03:23;3.45;;;1.50;;
70997;SDS011;58663;52.040;4.634;2022-08-21T15:05:50;5.78;;;1.48;;
70997;SDS011;58663;52.040;4.634;2022-08-21T15:08:16;6.65;;;1.67;;
70997;SDS011;58663;52.040;4.634;2022-08-21T15:10:41;8.02;;;4.45;;
70997;SDS011;58663;52.040;4.634;2022-08-21T15:13:07;312.65;;;253.93;;
70997;SDS011;58663;52.040;4.634;2022-08-21T15:15:34;226.73;;;160.57;;
70997;SDS011;58663;52.040;4.634;2022-08-21T15:18:04;166.25;;;110.57;;
70997;SDS011;58663;52.040;4.634;2022-08-21T15:20:29;122.32;;;87.97;;
70997;SDS011;58663;52.040;4.634;2022-08-21T15:22:55;17.85;;;12.07;;
70997;SDS011;58663;52.040;4.634;2022-08-21T15:25:20;4.82;;;1.70;;
70997;SDS011;58663;52.040;4.634;2022-08-21T15:27:46;6.05;;;2.30;;
70997;SDS011;58663;52.040;4.634;2022-08-21T15:30:11;7.53;;;2.40;;
70997;SDS011;58663;52.040;4.634;2022-08-21T15:32:37;5.43;;;1.73;;
70997;SDS011;58663;52.040;4.634;2022-08-21T15:35:03;8.77;;;1.65;;
70997;SDS011;58663;52.040;4.634;2022-08-21T15:37:29;6.32;;;1.75;;
70997;SDS011;58663;52.040;4.634;2022-08-21T15:39:54;5.28;;;1.73;;
70997;SDS011;58663;52.040;4.634;2022-08-21T15:42:20;4.80;;;2.15;;
70997;SDS011;58663;52.040;4.634;2022-08-21T15:44:46;4.93;;;1.70;;
70997;SDS011;58663;52.040;4.634;2022-08-21T15:47:14;7.00;;;1.65;;
70997;SDS011;58663;52.040;4.634;2022-08-21T15:49:41;6.82;;;1.70;;
70997;SDS011;58663;52.040;4.634;2022-08-21T15:52:19;8.07;;;1.77;;
70997;SDS011;58663;52.040;4.634;2022-08-21T15:54:46;5.95;;;1.73;;
70997;SDS011;58663;52.040;4.634;2022-08-21T15:57:13;5.15;;;1.48;;
70997;SDS011;58663;52.040;4.634;2022-08-21T15:59:42;5.82;;;1.80;;
70997;SDS011;58663;52.040;4.634;2022-08-21T16:02:10;8.95;;;1.88;;
70997;SDS011;58663;52.040;4.634;2022-08-21T16:04:39;4.60;;;1.45;;
70997;SDS011;58663;52.040;4.634;2022-08-21T16:07:04;6.88;;;1.80;;
70997;SDS011;58663;52.040;4.634;2022-08-21T16:09:30;11.48;;;1.80;;
70997;SDS011;58663;52.040;4.634;2022-08-21T16:11:55;4.82;;;1.77;;
70997;SDS011;58663;52.040;4.634;2022-08-21T16:14:21;5.00;;;1.55;;
70997;SDS011;58663;52.040;4.634;2022-08-21T16:16:46;6.80;;;1.65;;
70997;SDS011;58663;52.040;4.634;2022-08-21T16:19:12;3.97;;;1.77;;
70997;SDS011;58663;52.040;4.634;2022-08-21T16:21:38;4.55;;;1.70;;
70997;SDS011;58663;52.040;4.634;2022-08-21T16:24:04;4.43;;;1.48;;
70997;SDS011;58663;52.040;4.634;2022-08-21T16:26:29;4.55;;;1.48;;
70997;SDS011;58663;52.040;4.634;2022-08-21T16:28:55;3.95;;;1.33;;